Time;durP1;ratioP1;P1;durP2;ratioP2;P2;SDS_P1;SDS_P2;PMS_P1;PMS_P2;Temp;Humidity;BMP_temperature;BMP_pressure;BME280_temperature;BME280_humidity;BME280_pressure;Samples;Min_cycle;Max_cycle;Signal;HPM_P1;HPM_P2
2023/12/25 00:02:39;;;;;;;;;;;;;;;9.10;71.48;99663.97;5460994;32;35455;-70
2023/12/25 00:05:41;;;;;;;;;;;;;;;9.04;71.43;99643.25;5461027;32;34966;-72
2023/12/25 00:08:43;;;;;;;;;;;;;;;9.06;71.63;99608.19;5466236;32;34783;-71
2023/12/25 00:11:46;;;;;;;;;;;;;;;9.05;71.63;99651.03;5461270;32;34302;-72
2023/12/25 00:14:48;;;;;;;;;;;;;;;9.34;71.08;99649.75;5463280;32;35064;-72
2023/12/25 00:17:50;;;;;;;;;;;;;;;9.69;69.54;99644.63;5464789;32;34967;-69
2023/12/25 00:20:53;;;;;;;;;;;;;;;10.14;67.64;99641.56;5458904;32;35036;-70
2023/12/25 00:23:55;;;;;;;;;;;;;;;10.16;67.00;99636.22;5465886;32;34976;-71
2023/12/25 00:26:57;;;;;;;;;;;;;;;9.79;67.62;99627.53;5460873;32;34934;-72
2023/12/25 00:30:00;;;;;;;;;;;;;;;9.68;68.72;99609.66;5465901;32;35332;-72
2023/12/25 00:33:02;;;;;;;;;;;;;;;9.67;68.57;99620.25;5461086;32;34671;-70
2023/12/25 00:36:05;;;;;;;;;;;;;;;9.67;69.09;99626.34;5461697;32;35143;-69
2023/12/25 00:39:08;;;;;;;;;;;;;;;10.01;67.98;99633.44;5451897;32;35766;-70
2023/12/25 00:42:10;;;;;;;;;;;;;;;9.97;66.78;99623.16;5460939;32;34909;-70
2023/12/25 00:45:12;;;;;;;;;;;;;;;9.88;67.73;99636.72;5445212;32;34354;-70
2023/12/25 00:48:14;;;;;;;;;;;;;;;9.55;68.54;99640.03;5457979;32;35754;-69
2023/12/25 00:51:16;;;;;;;;;;;;;;;9.45;69.12;99630.88;5473308;32;34759;-73
2023/12/25 00:54:19;;;;;;;;;;;;;;;8.88;71.94;99636.06;5464751;32;34551;-72
2023/12/25 00:57:21;;;;;;;;;;;;;;;9.49;70.50;99650.81;5468239;32;35482;-72
2023/12/25 01:00:23;;;;;;;;;;;;;;;9.70;69.70;99654.19;5465979;32;34925;-70
2023/12/25 01:03:25;;;;;;;;;;;;;;;9.80;68.94;99655.47;5460741;32;34717;-69
2023/12/25 01:06:27;;;;;;;;;;;;;;;10.21;67.64;99673.63;5465611;32;35653;-72
2023/12/25 01:09:29;;;;;;;;;;;;;;;10.36;66.61;99688.66;5439983;32;35117;-71
2023/12/25 01:12:32;;;;;;;;;;;;;;;10.08;67.92;99683.88;5441823;32;35112;-72
2023/12/25 01:15:34;;;;;;;;;;;;;;;10.75;64.99;99679.69;5460421;32;34760;-71
2023/12/25 01:18:36;;;;;;;;;;;;;;;9.85;67.13;99670.97;5445445;32;34894;-72
2023/12/25 01:21:38;;;;;;;;;;;;;;;9.22;69.86;99685.22;5465110;32;35050;-69
2023/12/25 01:24:40;;;;;;;;;;;;;;;9.03;70.96;99681.72;5460444;32;35321;-70
2023/12/25 01:27:42;;;;;;;;;;;;;;;8.74;72.66;99693.44;5464906;32;35107;-69
2023/12/25 01:30:45;;;;;;;;;;;;;;;8.58;73.96;99693.25;5460582;32;34366;-71
2023/12/25 01:33:47;;;;;;;;;;;;;;;8.71;74.33;99706.69;5464051;32;34940;-71
2023/12/25 01:36:49;;;;;;;;;;;;;;;9.03;72.81;99697.44;5460792;32;34758;-71
2023/12/25 01:39:51;;;;;;;;;;;;;;;9.00;72.62;99686.22;5469081;32;35803;-72
2023/12/25 01:42:54;;;;;;;;;;;;;;;9.09;72.67;99691.94;5464253;32;35330;-70
2023/12/25 01:45:57;;;;;;;;;;;;;;;9.15;72.25;99694.28;5445815;32;34520;-72
2023/12/25 01:48:59;;;;;;;;;;;;;;;9.33;72.66;99699.62;5464568;32;35601;-69
2023/12/25 01:52:01;;;;;;;;;;;;;;;9.91;69.66;99705.66;5453173;32;35379;-69
2023/12/25 01:55:03;;;;;;;;;;;;;;;9.82;69.88;99707.88;5462345;32;35938;-69
2023/12/25 01:58:06;;;;;;;;;;;;;;;9.83;69.76;99691.22;5460440;32;36102;-70
2023/12/25 02:01:08;;;;;;;;;;;;;;;9.15;72.48;99706.56;5459927;32;35128;-70
2023/12/25 02:04:10;;;;;;;;;;;;;;;9.36;72.88;99697.72;5448568;32;34934;-70
2023/12/25 02:07:12;;;;;;;;;;;;;;;9.77;71.18;99685.31;5444708;32;35227;-69
2023/12/25 02:10:29;;;;;;;;;;;;;;;10.69;67.18;99680.00;5466730;32;35218;-72
2023/12/25 02:13:32;;;;;;;;;;;;;;;10.63;66.82;99694.34;5461935;32;34113;-72
2023/12/25 02:16:37;;;;;;;;;;;;;;;10.61;66.77;99680.41;5463801;32;34528;-72
2023/12/25 02:19:40;;;;;;;;;;;;;;;10.68;66.77;99700.19;5450626;32;35003;-70
2023/12/25 02:22:42;;;;;;;;;;;;;;;10.68;66.15;99702.81;5446541;32;34803;-72
2023/12/25 02:25:58;;;;;;;;;;;;;;;10.09;67.49;99701.31;5467097;32;34375;-72
2023/12/25 02:29:00;;;;;;;;;;;;;;;10.45;66.63;99711.00;5435221;32;846009;-71
2023/12/25 02:32:02;;;;;;;;;;;;;;;10.02;67.59;99703.37;5452190;32;35404;-72
2023/12/25 02:35:04;;;;;;;;;;;;;;;9.71;68.67;99696.09;5462437;32;34883;-73
2023/12/25 02:38:06;;;;;;;;;;;;;;;9.23;71.53;99694.78;5462446;32;34588;-69
2023/12/25 02:41:09;;;;;;;;;;;;;;;9.81;70.44;99695.69;5467166;32;34374;-72
2023/12/25 02:44:11;;;;;;;;;;;;;;;9.75;70.00;99695.03;5461589;32;34828;-70
2023/12/25 02:47:17;;;;;;;;;;;;;;;10.53;67.58;99704.44;5466226;32;35153;-72
2023/12/25 02:50:19;;;;;;;;;;;;;;;10.44;67.22;99707.53;5460155;32;35482;-72
2023/12/25 02:53:21;;;;;;;;;;;;;;;10.58;67.93;99715.56;5463129;32;34948;-73
2023/12/25 02:56:24;;;;;;;;;;;;;;;10.68;67.97;99723.00;5466940;32;35385;-74
2023/12/25 02:59:26;;;;;;;;;;;;;;;10.79;68.73;99737.31;5463650;32;34341;-71
2023/12/25 03:02:28;;;;;;;;;;;;;;;11.23;67.59;99734.19;5473592;32;34740;-72
2023/12/25 03:05:30;;;;;;;;;;;;;;;10.80;70.16;99730.25;5447858;32;34814;-71
2023/12/25 03:08:33;;;;;;;;;;;;;;;10.72;74.31;99743.78;5465821;32;35391;-72
2023/12/25 03:11:35;;;;;;;;;;;;;;;10.96;74.06;99731.19;5461965;32;35100;-69
2023/12/25 03:14:37;;;;;;;;;;;;;;;10.80;75.09;99710.09;5466207;32;35073;-73
2023/12/25 03:17:39;;;;;;;;;;;;;;;11.59;72.76;99723.50;5462865;32;34775;-70
2023/12/25 03:20:41;;;;;;;;;;;;;;;11.77;72.45;99736.59;5461495;32;34271;-70
2023/12/25 03:23:44;;;;;;;;;;;;;;;11.27;74.20;99743.63;5466014;32;34232;-72
2023/12/25 03:26:47;;;;;;;;;;;;;;;12.32;70.47;99737.06;5445010;32;34240;-72
2023/12/25 03:29:49;;;;;;;;;;;;;;;11.49;72.94;99730.19;5466533;32;35817;-72
2023/12/25 03:32:51;;;;;;;;;;;;;;;11.51;73.04;99730.09;5461061;32;34971;-70
2023/12/25 03:35:53;;;;;;;;;;;;;;;11.80;72.21;99742.53;5465857;32;34844;-69
2023/12/25 03:38:56;;;;;;;;;;;;;;;12.20;70.94;99737.75;5463789;32;34718;-71
2023/12/25 03:41:58;;;;;;;;;;;;;;;11.72;72.48;99734.22;5446646;32;34968;-72
2023/12/25 03:45:00;;;;;;;;;;;;;;;11.88;72.30;99729.00;5466537;32;35462;-70
2023/12/25 03:48:03;;;;;;;;;;;;;;;12.01;71.66;99734.44;5461737;32;35557;-71
2023/12/25 03:51:05;;;;;;;;;;;;;;;12.53;70.11;99715.69;5445872;32;34482;-70
2023/12/25 03:54:07;;;;;;;;;;;;;;;12.43;70.35;99718.84;5463354;32;35274;-70
2023/12/25 03:57:10;;;;;;;;;;;;;;;12.25;70.91;99712.00;5464919;32;34346;-70
2023/12/25 04:00:13;;;;;;;;;;;;;;;12.66;70.34;99717.50;5463943;32;35202;-71
2023/12/25 04:03:15;;;;;;;;;;;;;;;12.72;70.77;99730.34;5461133;32;35593;-70
2023/12/25 04:06:24;;;;;;;;;;;;;;;12.78;71.30;99723.88;5466365;32;35286;-70
2023/12/25 04:09:26;;;;;;;;;;;;;;;12.67;71.69;99723.62;5447047;32;35211;-72
2023/12/25 04:12:28;;;;;;;;;;;;;;;12.69;71.88;99713.88;5465957;32;35473;-72
2023/12/25 04:15:31;;;;;;;;;;;;;;;12.84;71.46;99709.47;5461928;32;35074;-71
2023/12/25 04:18:33;;;;;;;;;;;;;;;12.31;73.15;99711.66;5462498;32;34480;-70
2023/12/25 04:21:35;;;;;;;;;;;;;;;12.35;73.79;99733.38;5464330;32;35097;-71
2023/12/25 04:24:37;;;;;;;;;;;;;;;12.41;72.84;99714.59;5446838;32;34567;-71
2023/12/25 04:27:39;;;;;;;;;;;;;;;12.90;71.60;99714.38;5465417;32;33844;-71
2023/12/25 04:30:41;;;;;;;;;;;;;;;12.74;71.45;99714.44;5460978;32;34162;-71
2023/12/25 04:33:44;;;;;;;;;;;;;;;12.85;71.74;99714.66;5465549;32;34705;-70
2023/12/25 04:36:46;;;;;;;;;;;;;;;13.22;69.74;99721.25;5461227;32;35676;-72
2023/12/25 04:39:48;;;;;;;;;;;;;;;12.88;71.86;99718.87;5462644;32;34112;-72
2023/12/25 04:42:51;;;;;;;;;;;;;;;12.72;72.34;99726.84;5464515;32;34850;-69
2023/12/25 04:45:53;;;;;;;;;;;;;;;13.34;70.50;99709.09;5460947;32;35419;-71
2023/12/25 04:48:56;;;;;;;;;;;;;;;12.95;72.20;99714.97;5449067;32;34089;-72
2023/12/25 04:51:58;;;;;;;;;;;;;;;13.06;71.07;99716.94;5462466;32;35116;-72
2023/12/25 04:55:00;;;;;;;;;;;;;;;13.31;70.43;99711.06;5471822;32;34777;-70
2023/12/25 04:58:03;;;;;;;;;;;;;;;13.39;69.51;99714.94;5460638;32;35010;-71
2023/12/25 05:01:05;;;;;;;;;;;;;;;13.36;68.66;99709.00;5461426;32;34251;-70
2023/12/25 05:04:07;;;;;;;;;;;;;;;13.82;67.06;99709.63;5464498;32;34934;-72
2023/12/25 05:07:09;;;;;;;;;;;;;;;13.33;67.82;99703.91;5446012;32;35542;-71
2023/12/25 05:10:11;;;;;;;;;;;;;;;13.35;67.09;99707.31;5465496;32;34997;-72
2023/12/25 05:13:14;;;;;;;;;;;;;;;13.48;66.67;99714.38;5459692;32;35161;-70
2023/12/25 05:16:16;;;;;;;;;;;;;;;13.30;66.29;99710.22;5448696;32;35716;-70
2023/12/25 05:19:19;;;;;;;;;;;;;;;13.83;64.74;99713.97;5445870;32;34922;-70
2023/12/25 05:22:21;;;;;;;;;;;;;;;13.73;64.62;99715.50;5460134;32;34384;-70
2023/12/25 05:25:23;;;;;;;;;;;;;;;13.92;63.56;99716.03;5465231;32;34893;-71
2023/12/25 05:28:26;;;;;;;;;;;;;;;14.05;62.48;99708.19;5459582;32;34779;-73
2023/12/25 05:31:28;;;;;;;;;;;;;;;14.11;62.32;99709.59;5449674;32;34684;-70
2023/12/25 05:34:30;;;;;;;;;;;;;;;14.49;61.24;99713.25;5460672;32;34790;-70
2023/12/25 05:37:32;;;;;;;;;;;;;;;14.20;61.60;99711.63;5464151;32;35391;-72
2023/12/25 05:40:34;;;;;;;;;;;;;;;14.43;60.28;99715.44;5460751;32;34775;-70
2023/12/25 05:43:37;;;;;;;;;;;;;;;14.42;60.27;99721.63;5460640;32;34867;-73
2023/12/25 05:46:39;;;;;;;;;;;;;;;14.27;60.26;99723.50;5467243;32;35512;-70
2023/12/25 05:49:41;;;;;;;;;;;;;;;14.71;59.23;99739.12;5447677;32;34973;-70
2023/12/25 05:52:43;;;;;;;;;;;;;;;14.30;60.08;99736.53;5464120;32;34392;-72
2023/12/25 05:55:46;;;;;;;;;;;;;;;14.01;59.95;99747.16;5472295;32;35445;-71
2023/12/25 05:58:48;;;;;;;;;;;;;;;13.97;60.25;99736.84;5466496;32;34184;-72
2023/12/25 06:01:51;;;;;;;;;;;;;;;14.28;59.40;99725.19;5462258;32;35462;-70
2023/12/25 06:04:53;;;;;;;;;;;;;;;14.66;58.53;99730.62;5462407;32;35512;-70
2023/12/25 06:07:55;;;;;;;;;;;;;;;14.86;57.90;99731.94;5466758;32;35312;-72
2023/12/25 06:10:57;;;;;;;;;;;;;;;14.38;58.80;99726.28;5462407;32;35360;-72
2023/12/25 06:13:59;;;;;;;;;;;;;;;15.06;57.33;99728.81;5466747;32;34691;-72
2023/12/25 06:17:02;;;;;;;;;;;;;;;15.00;57.37;99734.50;5461786;32;35916;-69
2023/12/25 06:20:04;;;;;;;;;;;;;;;14.74;57.55;99746.84;5467076;32;34885;-70
2023/12/25 06:23:19;;;;;;;;;;;;;;;14.87;57.39;99757.44;5463770;32;34723;-73
2023/12/25 06:26:22;;;;;;;;;;;;;;;14.90;57.25;99757.25;5462543;32;35341;-72
2023/12/25 06:29:24;;;;;;;;;;;;;;;14.47;58.16;99759.22;5466573;32;35323;-73
2023/12/25 06:32:26;;;;;;;;;;;;;;;14.59;57.91;99761.94;5461653;32;34977;-72
2023/12/25 06:35:28;;;;;;;;;;;;;;;14.89;56.89;99769.66;5466915;32;34284;-71
2023/12/25 06:38:30;;;;;;;;;;;;;;;14.89;57.11;99776.75;5462029;32;34886;-71
2023/12/25 06:41:32;;;;;;;;;;;;;;;14.90;56.87;99771.34;5464316;32;35341;-70
2023/12/25 06:44:36;;;;;;;;;;;;;;;14.77;56.97;99769.62;5464567;32;35017;-73
2023/12/25 06:47:38;;;;;;;;;;;;;;;13.92;59.24;99784.72;5461805;32;34957;-70
2023/12/25 06:50:40;;;;;;;;;;;;;;;14.43;58.07;99789.44;5475682;32;35107;-71
2023/12/25 06:53:42;;;;;;;;;;;;;;;14.00;59.76;99795.66;5460478;32;35422;-73
2023/12/25 06:56:44;;;;;;;;;;;;;;;14.19;58.50;99800.63;5477868;32;34610;-70
2023/12/25 06:59:47;;;;;;;;;;;;;;;14.12;58.75;99796.69;5441068;32;34443;-70
2023/12/25 07:02:50;;;;;;;;;;;;;;;13.91;58.90;99796.25;5458899;32;34359;-72
2023/12/25 07:05:52;;;;;;;;;;;;;;;13.50;60.59;99809.31;5464403;32;35507;-69
2023/12/25 07:08:54;;;;;;;;;;;;;;;12.61;62.69;99813.62;5461493;32;35027;-73
2023/12/25 07:11:56;;;;;;;;;;;;;;;12.64;62.94;99816.94;5465926;32;35638;-73
2023/12/25 07:14:58;;;;;;;;;;;;;;;13.66;60.14;99812.75;5461929;32;34268;-71
2023/12/25 07:18:01;;;;;;;;;;;;;;;13.51;60.44;99803.94;5445571;32;35456;-72
2023/12/25 07:21:03;;;;;;;;;;;;;;;13.03;61.42;99794.50;5460255;32;34855;-73
2023/12/25 07:24:05;;;;;;;;;;;;;;;14.20;58.29;99812.91;5461663;32;34802;-73
2023/12/25 07:27:08;;;;;;;;;;;;;;;14.70;56.54;99808.84;5465075;32;35377;-70
2023/12/25 07:30:10;;;;;;;;;;;;;;;14.79;55.98;99812.66;5462075;32;34928;-71
2023/12/25 07:33:12;;;;;;;;;;;;;;;14.92;55.49;99821.50;5466092;32;35519;-72
2023/12/25 07:36:14;;;;;;;;;;;;;;;14.85;55.70;99830.78;5461714;32;34629;-70
2023/12/25 07:39:16;;;;;;;;;;;;;;;14.59;56.36;99830.69;5466780;32;35092;-73
2023/12/25 07:42:18;;;;;;;;;;;;;;;14.47;56.31;99823.53;5446479;32;34856;-73
2023/12/25 07:45:20;;;;;;;;;;;;;;;14.45;56.34;99838.63;5462891;32;35465;-71
2023/12/25 07:48:22;;;;;;;;;;;;;;;13.93;57.77;99826.03;5444897;32;35222;-71
2023/12/25 07:51:26;;;;;;;;;;;;;;;13.80;58.56;99843.59;5454588;32;35114;-73
2023/12/25 07:54:28;;;;;;;;;;;;;;;13.74;59.36;99842.16;5465181;32;34521;-71
2023/12/25 07:57:30;;;;;;;;;;;;;;;14.02;58.14;99846.59;5460858;32;34940;-72
2023/12/25 08:00:32;;;;;;;;;;;;;;;13.97;58.08;99840.75;5466320;32;34983;-71
2023/12/25 08:03:34;;;;;;;;;;;;;;;13.71;59.33;99852.06;5460595;32;34782;-72
2023/12/25 08:06:36;;;;;;;;;;;;;;;13.65;59.44;99847.97;5461148;32;35971;-72
2023/12/25 08:09:40;;;;;;;;;;;;;;;13.62;59.23;99844.69;5466237;32;34888;-70
2023/12/25 08:12:43;;;;;;;;;;;;;;;13.26;60.44;99856.47;5460670;32;34566;-70
2023/12/25 08:15:45;;;;;;;;;;;;;;;13.10;61.10;99861.78;5465977;32;34390;-72
2023/12/25 08:18:47;;;;;;;;;;;;;;;13.33;60.41;99868.41;5460637;32;34811;-70
2023/12/25 08:21:49;;;;;;;;;;;;;;;13.31;60.54;99872.91;5454320;32;34905;-71
2023/12/25 08:24:51;;;;;;;;;;;;;;;13.19;60.71;99873.59;5461234;32;34375;-73
2023/12/25 08:27:53;;;;;;;;;;;;;;;12.65;62.53;99876.63;5460404;32;34754;-72
2023/12/25 08:30:56;;;;;;;;;;;;;;;12.54;63.20;99881.66;5465868;32;34758;-70
2023/12/25 08:33:58;;;;;;;;;;;;;;;12.72;63.03;99880.63;5460540;32;34826;-72
2023/12/25 08:37:00;;;;;;;;;;;;;;;12.70;62.60;99886.94;5466801;32;34308;-71
2023/12/25 08:40:03;;;;;;;;;;;;;;;12.36;64.32;99875.59;5461483;32;35315;-70
2023/12/25 08:43:05;;;;;;;;;;;;;;;12.84;62.31;99876.47;5465036;32;34588;-69
2023/12/25 08:46:07;;;;;;;;;;;;;;;12.61;63.05;99892.72;5461089;32;34274;-71
2023/12/25 08:49:09;;;;;;;;;;;;;;;12.27;64.02;99896.34;5441917;32;34303;-71
2023/12/25 08:52:11;;;;;;;;;;;;;;;11.83;65.00;99904.78;5448639;32;34589;-70
2023/12/25 08:55:13;;;;;;;;;;;;;;;12.16;64.23;99910.91;5463038;32;34169;-70
2023/12/25 08:58:15;;;;;;;;;;;;;;;12.24;63.83;99912.31;5465271;32;34826;-70
2023/12/25 09:01:17;;;;;;;;;;;;;;;12.16;63.79;99910.91;5460388;32;35544;-72
2023/12/25 09:04:19;;;;;;;;;;;;;;;12.07;64.26;99910.56;5464695;32;34900;-72
2023/12/25 09:07:21;;;;;;;;;;;;;;;11.99;64.53;99910.13;5445955;32;35532;-72
2023/12/25 09:10:23;;;;;;;;;;;;;;;11.44;66.34;99947.13;5460607;32;35437;-71
2023/12/25 09:13:25;;;;;;;;;;;;;;;11.27;67.41;99937.41;5464678;32;34926;-69
2023/12/25 09:16:28;;;;;;;;;;;;;;;11.21;67.16;99941.22;5459928;32;34313;-73
2023/12/25 09:19:30;;;;;;;;;;;;;;;11.16;67.99;99943.22;5464596;32;34456;-69
2023/12/25 09:22:32;;;;;;;;;;;;;;;11.45;66.87;99923.34;5462025;32;34718;-73
2023/12/25 09:25:34;;;;;;;;;;;;;;;11.87;65.34;99919.53;5467406;32;34482;-72
2023/12/25 09:28:37;;;;;;;;;;;;;;;11.84;65.35;99915.25;5462991;32;35478;-70
2023/12/25 09:31:39;;;;;;;;;;;;;;;12.02;64.63;99915.22;5462171;32;34388;-69
2023/12/25 09:34:41;;;;;;;;;;;;;;;12.00;64.77;99911.84;5467751;32;35025;-71
2023/12/25 09:37:56;;;;;;;;;;;;;;;12.13;64.17;99916.38;5462830;32;34713;-70
2023/12/25 09:40:58;;;;;;;;;;;;;;;12.28;63.96;99909.41;5467689;32;35289;-71
2023/12/25 09:44:01;;;;;;;;;;;;;;;12.47;63.26;99911.91;5461419;32;34408;-71
2023/12/25 09:47:06;;;;;;;;;;;;;;;12.51;62.93;99916.09;5450019;32;34643;-70
2023/12/25 09:50:08;;;;;;;;;;;;;;;12.72;62.76;99903.50;5468227;32;34494;-69
2023/12/25 09:53:10;;;;;;;;;;;;;;;12.94;61.51;99908.44;5459540;32;35424;-71
2023/12/25 09:56:12;;;;;;;;;;;;;;;13.22;60.54;99905.97;5472713;32;35155;-71
2023/12/25 09:59:15;;;;;;;;;;;;;;;13.00;61.31;99911.56;5462480;32;34297;-72
2023/12/25 10:02:17;;;;;;;;;;;;;;;12.98;61.86;99902.91;5451693;32;34824;-70
2023/12/25 10:05:19;;;;;;;;;;;;;;;12.86;62.69;99906.22;5462424;32;34220;-69
2023/12/25 10:08:21;;;;;;;;;;;;;;;13.16;60.80;99913.34;5443300;32;35184;-72
2023/12/25 10:11:23;;;;;;;;;;;;;;;12.31;63.15;99903.16;5465776;32;34450;-70
2023/12/25 10:14:25;;;;;;;;;;;;;;;12.49;63.64;99907.41;5448143;32;35808;-73
2023/12/25 10:17:27;;;;;;;;;;;;;;;12.87;62.05;99907.91;5466655;32;34762;-69
2023/12/25 10:20:29;;;;;;;;;;;;;;;12.24;63.90;99920.22;5462834;32;35580;-70
2023/12/25 10:23:31;;;;;;;;;;;;;;;11.88;65.50;99906.25;5452005;32;34146;-72
2023/12/25 10:26:33;;;;;;;;;;;;;;;11.83;65.91;99889.84;5461944;32;34836;-72
2023/12/25 10:29:35;;;;;;;;;;;;;;;11.74;67.14;99887.66;5448072;32;34284;-69
2023/12/25 10:32:38;;;;;;;;;;;;;;;12.03;66.27;99880.91;5465325;32;34828;-71
2023/12/25 10:35:41;;;;;;;;;;;;;;;12.35;64.46;99881.81;5461947;32;35609;-73
2023/12/25 10:38:54;;;;;;;;;;;;;;;11.98;65.37;99880.31;5454403;32;34906;-70
2023/12/25 10:41:56;;;;;;;;;;;;;;;13.06;62.30;99886.63;5461325;32;34877;-74
2023/12/25 10:44:58;;;;;;;;;;;;;;;12.43;64.42;99886.69;5466596;32;34989;-72
2023/12/25 10:48:02;;;;;;;;;;;;;;;11.78;67.47;99893.63;5461947;32;34839;-72
2023/12/25 10:51:05;;;;;;;;;;;;;;;12.52;65.09;99901.13;5442549;32;35511;-71
2023/12/25 10:54:10;;;;;;;;;;;;;;;12.12;65.99;99890.12;5441107;32;34600;-70
2023/12/25 10:57:12;;;;;;;;;;;;;;;12.55;66.15;99882.50;5450768;32;34117;-71
2023/12/25 11:00:15;;;;;;;;;;;;;;;12.92;63.92;99866.31;5448809;32;34641;-72
2023/12/25 11:03:17;;;;;;;;;;;;;;;13.00;63.09;99863.25;5440565;32;34667;-74
2023/12/25 11:06:19;;;;;;;;;;;;;;;12.88;63.26;99899.09;5449397;32;35047;-74
2023/12/25 11:09:22;;;;;;;;;;;;;;;12.12;65.66;99898.88;5447977;32;34997;-70
2023/12/25 11:12:25;;;;;;;;;;;;;;;11.87;67.36;99891.41;5446920;32;35425;-73
2023/12/25 11:15:27;;;;;;;;;;;;;;;11.77;67.52;99913.81;5452623;32;34162;-70
2023/12/25 11:18:29;;;;;;;;;;;;;;;12.08;67.41;99901.72;5441222;32;35558;-70
2023/12/25 11:21:33;;;;;;;;;;;;;;;12.52;65.16;99916.94;5439238;32;35399;-71
2023/12/25 11:24:34;;;;;;;;;;;;;;;12.45;65.19;99919.91;5461636;32;34311;-70
2023/12/25 11:27:36;;;;;;;;;;;;;;;12.00;66.84;99915.31;5464701;32;34276;-71
2023/12/25 11:30:38;;;;;;;;;;;;;;;12.44;65.98;99909.47;5462753;32;34913;-70
2023/12/25 11:33:41;;;;;;;;;;;;;;;12.78;64.32;99911.09;5461163;32;34365;-71
2023/12/25 11:36:43;;;;;;;;;;;;;;;13.15;63.27;99922.22;5451842;32;35034;-69
2023/12/25 11:39:53;;;;;;;;;;;;;;;13.34;62.10;99901.78;5447383;32;34969;-72
2023/12/25 11:42:55;;;;;;;;;;;;;;;13.05;63.52;99902.56;5465154;32;34847;-72
2023/12/25 11:45:57;;;;;;;;;;;;;;;13.56;62.07;99893.44;5445789;32;34422;-72
2023/12/25 11:49:00;;;;;;;;;;;;;;;13.78;60.45;99870.09;5449653;32;34893;-70
2023/12/25 11:52:03;;;;;;;;;;;;;;;13.92;60.22;99876.34;5469249;32;35164;-70
2023/12/25 11:55:06;;;;;;;;;;;;;;;13.54;61.01;99867.12;5460004;32;34300;-72
2023/12/25 11:58:08;;;;;;;;;;;;;;;14.03;60.64;99885.28;5466155;32;35507;-71
2023/12/25 12:01:13;;;;;;;;;;;;;;;14.50;58.74;99891.25;5446428;32;34617;-70
2023/12/25 12:04:16;;;;;;;;;;;;;;;14.68;57.81;99900.66;5451534;32;35830;-72
2023/12/25 12:07:18;;;;;;;;;;;;;;;14.52;57.88;99923.72;5461430;32;34574;-70
2023/12/25 12:10:20;;;;;;;;;;;;;;;13.98;59.16;99899.75;5462851;32;34991;-70
2023/12/25 12:13:22;;;;;;;;;;;;;;;13.86;59.52;99896.03;5465216;32;35310;-72
2023/12/25 12:16:27;;;;;;;;;;;;;;;13.58;61.07;99898.62;5461312;32;35687;-72
2023/12/25 12:19:29;;;;;;;;;;;;;;;13.99;58.89;99885.59;5452196;32;35029;-73
2023/12/25 12:22:31;;;;;;;;;;;;;;;13.55;61.09;99889.09;5460384;32;34869;-72
2023/12/25 12:25:33;;;;;;;;;;;;;;;14.07;59.96;99896.53;5466609;32;35423;-72
2023/12/25 12:28:35;;;;;;;;;;;;;;;14.56;57.51;99886.44;5461067;32;34911;-70
2023/12/25 12:31:38;;;;;;;;;;;;;;;14.44;57.68;99916.25;5461262;32;34750;-72
2023/12/25 12:34:40;;;;;;;;;;;;;;;14.53;57.47;99909.56;5452336;32;35041;-72
2023/12/25 12:37:42;;;;;;;;;;;;;;;14.38;57.96;99899.94;5461943;32;34795;-69
2023/12/25 12:40:44;;;;;;;;;;;;;;;14.47;58.01;99910.78;5446089;32;36120;-72
2023/12/25 12:43:46;;;;;;;;;;;;;;;14.22;59.39;99911.44;5459975;32;34530;-70
2023/12/25 12:46:48;;;;;;;;;;;;;;;13.86;59.31;99897.84;5465560;32;36239;-70
2023/12/25 12:49:50;;;;;;;;;;;;;;;14.13;59.14;99927.03;5440208;32;35297;-72
2023/12/25 12:52:53;;;;;;;;;;;;;;;13.69;61.00;99926.09;5437986;32;35782;-71
2023/12/25 12:55:54;;;;;;;;;;;;;;;13.44;61.57;99924.03;5478718;32;35248;-72
2023/12/25 12:58:56;;;;;;;;;;;;;;;13.02;63.37;99916.78;5443493;32;35571;-72
2023/12/25 13:01:58;;;;;;;;;;;;;;;13.16;62.83;99921.28;5450209;32;34246;-73
2023/12/25 13:05:00;;;;;;;;;;;;;;;12.73;64.05;99919.25;5461336;32;34608;-71
2023/12/25 13:08:03;;;;;;;;;;;;;;;12.79;64.70;99931.25;5444696;32;34982;-72
2023/12/25 13:11:05;;;;;;;;;;;;;;;12.82;65.31;99883.62;5461002;32;34620;-72
2023/12/25 13:14:07;;;;;;;;;;;;;;;13.08;64.60;99911.16;5460434;32;34740;-72
2023/12/25 13:17:09;;;;;;;;;;;;;;;13.59;61.66;99924.06;5465455;32;35417;-71
2023/12/25 13:20:11;;;;;;;;;;;;;;;14.08;60.83;99948.44;5460611;32;35348;-72
2023/12/25 13:23:13;;;;;;;;;;;;;;;14.08;59.55;99936.06;5464477;32;34883;-70
2023/12/25 13:26:14;;;;;;;;;;;;;;;13.88;60.42;99902.06;5460458;32;36005;-73
2023/12/25 13:29:16;;;;;;;;;;;;;;;14.21;58.16;99901.81;5464754;32;34251;-70
2023/12/25 13:32:19;;;;;;;;;;;;;;;14.53;57.29;99897.19;5459997;32;35196;-72
2023/12/25 13:35:20;;;;;;;;;;;;;;;14.36;57.91;99907.94;5445819;32;34851;-72
2023/12/25 13:38:23;;;;;;;;;;;;;;;13.89;59.45;99924.06;5464693;32;35021;-69
2023/12/25 13:41:25;;;;;;;;;;;;;;;13.99;59.87;99918.13;5459659;32;35202;-71
2023/12/25 13:44:29;;;;;;;;;;;;;;;14.25;58.73;99929.75;5450283;32;34975;-70
2023/12/25 13:47:31;;;;;;;;;;;;;;;14.58;58.45;99912.78;5459467;32;34372;-70
2023/12/25 13:50:47;;;;;;;;;;;;;;;14.63;57.85;99921.28;5440822;32;34862;-70
2023/12/25 13:53:49;;;;;;;;;;;;;;;14.90;56.85;99908.06;5460938;32;34843;-71
2023/12/25 13:56:51;;;;;;;;;;;;;;;14.96;56.12;99912.13;5471427;32;35468;-74
2023/12/25 13:59:53;;;;;;;;;;;;;;;14.45;57.84;99904.72;5464500;32;34869;-72
2023/12/25 14:02:55;;;;;;;;;;;;;;;14.86;56.83;99915.34;5459038;32;35136;-70
2023/12/25 14:05:58;;;;;;;;;;;;;;;14.54;57.39;99914.75;5466990;32;34268;-71
2023/12/25 14:09:00;;;;;;;;;;;;;;;14.71;57.27;99921.62;5461781;32;34830;-73
2023/12/25 14:12:03;;;;;;;;;;;;;;;14.94;56.80;99914.00;5450264;32;34643;-72
2023/12/25 14:15:06;;;;;;;;;;;;;;;14.60;57.32;99913.50;5464874;32;35476;-70
2023/12/25 14:18:08;;;;;;;;;;;;;;;14.72;57.57;99925.13;5440955;32;34734;-71
2023/12/25 14:21:10;;;;;;;;;;;;;;;14.34;58.45;99937.09;5465948;32;34886;-72
2023/12/25 14:24:13;;;;;;;;;;;;;;;14.75;57.52;99932.84;5461475;32;35368;-69
2023/12/25 14:27:15;;;;;;;;;;;;;;;14.55;58.15;99934.94;5466119;32;35481;-72
2023/12/25 14:30:17;;;;;;;;;;;;;;;14.78;57.27;99935.31;5461935;32;35245;-70
2023/12/25 14:33:20;;;;;;;;;;;;;;;14.58;57.73;99955.94;5463224;32;34640;-72
2023/12/25 14:36:26;;;;;;;;;;;;;;;14.60;57.61;99943.44;5464602;32;35479;-70
2023/12/25 14:39:28;;;;;;;;;;;;;;;14.36;58.05;99952.88;5462102;32;34419;-72
2023/12/25 14:42:30;;;;;;;;;;;;;;;14.30;58.47;99945.34;5466322;32;34644;-70
2023/12/25 14:45:32;;;;;;;;;;;;;;;14.14;59.01;99941.94;5462707;32;34679;-72
2023/12/25 14:48:34;;;;;;;;;;;;;;;14.56;58.03;99947.25;5465744;32;34834;-72
2023/12/25 14:51:36;;;;;;;;;;;;;;;14.18;58.92;99935.53;5458849;32;34619;-73
2023/12/25 14:54:38;;;;;;;;;;;;;;;14.36;58.16;99929.06;5462058;32;34911;-72
2023/12/25 14:57:40;;;;;;;;;;;;;;;13.70;59.60;99934.88;5465460;32;35332;-70
2023/12/25 15:00:42;;;;;;;;;;;;;;;14.36;58.64;99944.94;5462072;32;35065;-75
2023/12/25 15:03:44;;;;;;;;;;;;;;;14.21;58.83;99937.97;5466388;32;34791;-69
2023/12/25 15:06:46;;;;;;;;;;;;;;;13.85;60.01;99951.59;5461702;32;34234;-72
2023/12/25 15:09:48;;;;;;;;;;;;;;;13.95;60.07;99956.25;5466400;32;34855;-72
2023/12/25 15:12:50;;;;;;;;;;;;;;;13.86;60.31;99969.16;5461598;32;35382;-72
2023/12/25 15:15:52;;;;;;;;;;;;;;;13.66;60.85;99975.63;5462517;32;34502;-70
2023/12/25 15:18:54;;;;;;;;;;;;;;;13.83;60.61;99978.09;5465611;32;35034;-69
2023/12/25 15:21:57;;;;;;;;;;;;;;;13.48;61.40;99975.72;5461033;32;34395;-69
2023/12/25 15:25:01;;;;;;;;;;;;;;;13.84;60.66;99979.78;5466324;32;35315;-73
2023/12/25 15:28:06;;;;;;;;;;;;;;;14.04;59.92;99986.56;5461138;32;35668;-72
2023/12/25 15:31:08;;;;;;;;;;;;;;;13.77;60.70;99991.66;5466066;32;34440;-70
2023/12/25 15:34:12;;;;;;;;;;;;;;;13.93;60.08;99989.84;5461415;32;35002;-69
2023/12/25 15:37:17;;;;;;;;;;;;;;;13.19;63.00;99992.31;5462262;32;36019;-71
2023/12/25 15:40:19;;;;;;;;;;;;;;;13.33;62.61;100005.66;5466619;32;35043;-71
2023/12/25 15:43:21;;;;;;;;;;;;;;;13.27;62.57;99992.81;5460983;32;34989;-72
2023/12/25 15:46:23;;;;;;;;;;;;;;;13.59;61.34;100005.94;5466191;32;34521;-70
2023/12/25 15:49:26;;;;;;;;;;;;;;;13.73;61.00;100000.72;5446006;32;35262;-70
2023/12/25 15:52:28;;;;;;;;;;;;;;;13.41;61.65;100013.97;5448809;32;35483;-71